sensor_id;sensor_type;location;lat;lon;timestamp;pressure;altitude;pressure_sealevel;temperature;humidity
67842;BME280;54642;59.126;37.876;2023-02-20T07:03:36;98714.38;;;-3.64;51.34
67842;BME280;54642;59.126;37.876;2023-02-20T07:06:02;98712.25;;;-3.50;51.04
67842;BME280;54642;59.126;37.876;2023-02-20T07:08:28;98710.53;;;-4.07;50.07
67842;BME280;54642;59.126;37.876;2023-02-20T07:10:54;98694.97;;;-4.19;51.05
67842;BME280;54642;59.126;37.876;2023-02-20T07:13:21;98595.38;;;-4.76;50.95
67842;BME280;54642;59.126;37.876;2023-02-20T07:15:47;98713.25;;;-4.01;51.43
67842;BME280;54642;59.126;37.876;2023-02-20T07:18:14;98712.72;;;-3.33;51.26
67842;BME280;54642;59.126;37.876;2023-02-20T07:20:42;98714.53;;;-3.29;50.02
67842;BME280;54642;59.126;37.876;2023-02-20T07:23:08;98661.63;;;-4.33;51.01
67842;BME280;54642;59.126;37.876;2023-02-20T07:25:34;98727.72;;;-4.23;52.87
67842;BME280;54642;59.126;37.876;2023-02-20T07:28:00;98742.91;;;-5.21;53.53
67842;BME280;54642;59.126;37.876;2023-02-20T07:30:26;98731.03;;;-6.35;55.87
67842;BME280;54642;59.126;37.876;2023-02-20T07:32:52;98738.97;;;-7.24;57.51
67842;BME280;54642;59.126;37.876;2023-02-20T07:35:18;98732.91;;;-7.48;59.37
67842;BME280;54642;59.126;37.876;2023-02-20T07:37:44;98767.19;;;-7.32;59.84
67842;BME280;54642;59.126;37.876;2023-02-20T07:40:11;98749.81;;;-7.45;59.87
67842;BME280;54642;59.126;37.876;2023-02-20T07:42:37;98746.75;;;-7.57;60.58
67842;BME280;54642;59.126;37.876;2023-02-20T07:45:15;98752.94;;;-7.69;60.87
67842;BME280;54642;59.126;37.876;2023-02-20T07:47:41;98742.16;;;-7.84;60.78
67842;BME280;54642;59.126;37.876;2023-02-20T07:50:08;98747.56;;;-7.94;60.89
67842;BME280;54642;59.126;37.876;2023-02-20T07:52:34;98738.38;;;-8.12;61.03
67842;BME280;54642;59.126;37.876;2023-02-20T07:55:00;98719.13;;;-8.29;61.06
67842;BME280;54642;59.126;37.876;2023-02-20T07:57:26;98745.59;;;-8.18;61.49
67842;BME280;54642;59.126;37.876;2023-02-20T07:59:52;98651.53;;;-8.77;61.41
67842;BME280;54642;59.126;37.876;2023-02-20T08:02:18;98689.66;;;-8.50;61.46
67842;BME280;54642;59.126;37.876;2023-02-20T08:04:44;98714.78;;;-8.32;61.49
67842;BME280;54642;59.126;37.876;2023-02-20T08:07:09;98748.72;;;-8.06;61.80
67842;BME280;54642;59.126;37.876;2023-02-20T08:09:35;98673.66;;;-8.52;61.65
67842;BME280;54642;59.126;37.876;2023-02-20T08:12:01;98740.09;;;-8.11;61.51
67842;BME280;54642;59.126;37.876;2023-02-20T08:14:27;98692.13;;;-8.33;61.61
67842;BME280;54642;59.126;37.876;2023-02-20T08:16:53;98758.91;;;-7.67;62.03
67842;BME280;54642;59.126;37.876;2023-02-20T08:19:19;98733.47;;;-7.73;61.51
67842;BME280;54642;59.126;37.876;2023-02-20T08:21:45;98749.84;;;-7.63;61.29
67842;BME280;54642;59.126;37.876;2023-02-20T08:24:11;98719.53;;;-7.84;61.46
67842;BME280;54642;59.126;37.876;2023-02-20T08:26:47;98753.41;;;-7.40;61.49
67842;BME280;54642;59.126;37.876;2023-02-20T08:29:14;98750.66;;;-7.07;61.45
67842;BME280;54642;59.126;37.876;2023-02-20T08:31:41;98731.03;;;-7.34;60.97
67842;BME280;54642;59.126;37.876;2023-02-20T08:34:07;98668.06;;;-7.73;61.28
67842;BME280;54642;59.126;37.876;2023-02-20T08:36:33;98738.81;;;-6.90;61.46
67842;BME280;54642;59.126;37.876;2023-02-20T08:38:59;98685.47;;;-7.01;60.75
67842;BME280;54642;59.126;37.876;2023-02-20T08:41:25;98670.38;;;-7.20;60.73
67842;BME280;54642;59.126;37.876;2023-02-20T08:43:51;98742.63;;;-6.79;60.71
67842;BME280;54642;59.126;37.876;2023-02-20T08:46:17;98732.72;;;-6.95;61.17
67842;BME280;54642;59.126;37.876;2023-02-20T08:48:43;98670.69;;;-7.32;60.71
67842;BME280;54642;59.126;37.876;2023-02-20T08:51:09;98707.06;;;-7.06;60.96
67842;BME280;54642;59.126;37.876;2023-02-20T08:53:37;98752.03;;;-6.94;60.74
67842;BME280;54642;59.126;37.876;2023-02-20T08:56:07;98751.78;;;-7.00;60.97
67842;BME280;54642;59.126;37.876;2023-02-20T08:58:34;98749.50;;;-6.55;61.19
67842;BME280;54642;59.126;37.876;2023-02-20T09:01:00;98719.09;;;-6.39;60.53
67842;BME280;54642;59.126;37.876;2023-02-20T09:03:26;98690.97;;;-6.69;60.35
67842;BME280;54642;59.126;37.876;2023-02-20T09:05:52;98704.63;;;-6.64;60.39
67842;BME280;54642;59.126;37.876;2023-02-20T09:08:17;98735.91;;;-6.59;60.40
67842;BME280;54642;59.126;37.876;2023-02-20T09:10:43;98719.41;;;-6.52;60.51
67842;BME280;54642;59.126;37.876;2023-02-20T09:13:10;98673.31;;;-6.90;59.83
67842;BME280;54642;59.126;37.876;2023-02-20T09:15:36;98720.41;;;-6.68;60.45
67842;BME280;54642;59.126;37.876;2023-02-20T09:18:11;98705.16;;;-6.71;60.88
67842;BME280;54642;59.126;37.876;2023-02-20T09:20:37;98708.00;;;-6.42;60.96
67842;BME280;54642;59.126;37.876;2023-02-20T09:23:04;98709.06;;;-6.37;60.23
67842;BME280;54642;59.126;37.876;2023-02-20T09:25:29;98727.97;;;-6.27;60.21
67842;BME280;54642;59.126;37.876;2023-02-20T09:27:56;98670.56;;;-6.75;60.03
67842;BME280;54642;59.126;37.876;2023-02-20T09:30:22;98625.06;;;-7.20;60.14
67842;BME280;54642;59.126;37.876;2023-02-20T09:32:48;98682.81;;;-7.04;60.23
67842;BME280;54642;59.126;37.876;2023-02-20T09:35:27;98592.47;;;-7.37;60.61
67842;BME280;54642;59.126;37.876;2023-02-20T09:37:53;98727.41;;;-6.41;60.61
67842;BME280;54642;59.126;37.876;2023-02-20T09:40:25;98721.31;;;-6.25;60.58
67842;BME280;54642;59.126;37.876;2023-02-20T09:42:58;98654.59;;;-6.55;60.45
67842;BME280;54642;59.126;37.876;2023-02-20T09:45:32;98700.03;;;-6.32;60.18
67842;BME280;54642;59.126;37.876;2023-02-20T09:55:50;98696.19;;;-6.01;60.55
67842;BME280;54642;59.126;37.876;2023-02-20T09:58:35;98692.75;;;-5.81;60.25
67842;BME280;54642;59.126;37.876;2023-02-20T10:01:03;98693.00;;;-5.97;60.00
67842;BME280;54642;59.126;37.876;2023-02-20T10:06:20;98619.88;;;-6.41;60.25
67842;BME280;54642;59.126;37.876;2023-02-20T10:08:48;98671.88;;;-5.99;60.30
67842;BME280;54642;59.126;37.876;2023-02-20T10:17:15;98671.72;;;-6.04;60.04
67842;BME280;54642;59.126;37.876;2023-02-20T10:19:59;98687.19;;;-5.72;60.26
67842;BME280;54642;59.126;37.876;2023-02-20T10:22:37;98685.97;;;-5.59;60.07
67842;BME280;54642;59.126;37.876;2023-02-20T10:25:11;98666.25;;;-5.47;60.14
67842;BME280;54642;59.126;37.876;2023-02-20T10:27:47;98682.19;;;-5.48;59.37
67842;BME280;54642;59.126;37.876;2023-02-20T10:33:02;98666.88;;;-5.75;59.51
67842;BME280;54642;59.126;37.876;2023-02-20T10:38:29;98650.50;;;-5.15;59.53
67842;BME280;54642;59.126;37.876;2023-02-20T10:41:07;98650.94;;;-5.27;59.55
67842;BME280;54642;59.126;37.876;2023-02-20T10:47:06;98654.66;;;-5.42;59.55
67842;BME280;54642;59.126;37.876;2023-02-20T10:52:06;98521.84;;;-6.10;59.73
67842;BME280;54642;59.126;37.876;2023-02-20T10:54:37;98639.00;;;-5.31;59.52
67842;BME280;54642;59.126;37.876;2023-02-20T10:57:10;98639.13;;;-5.04;59.91
67842;BME280;54642;59.126;37.876;2023-02-20T11:00:15;98645.50;;;-4.90;58.98
67842;BME280;54642;59.126;37.876;2023-02-20T11:02:46;98640.47;;;-4.88;59.25
67842;BME280;54642;59.126;37.876;2023-02-20T11:05:20;98589.34;;;-5.07;58.88
67842;BME280;54642;59.126;37.876;2023-02-20T11:07:48;98638.56;;;-4.70;59.06
67842;BME280;54642;59.126;37.876;2023-02-20T11:10:14;98579.34;;;-5.04;58.63
67842;BME280;54642;59.126;37.876;2023-02-20T11:12:45;98635.22;;;-4.69;59.09
67842;BME280;54642;59.126;37.876;2023-02-20T11:15:15;98575.91;;;-5.06;58.86
67842;BME280;54642;59.126;37.876;2023-02-20T11:17:43;98599.13;;;-5.16;58.93
67842;BME280;54642;59.126;37.876;2023-02-20T11:22:58;98598.59;;;-5.31;58.58
67842;BME280;54642;59.126;37.876;2023-02-20T11:25:29;98614.41;;;-5.13;58.74
67842;BME280;54642;59.126;37.876;2023-02-20T11:30:40;98608.09;;;-4.47;58.86
67842;BME280;54642;59.126;37.876;2023-02-20T11:33:17;98627.19;;;-4.30;57.94
67842;BME280;54642;59.126;37.876;2023-02-20T11:35:45;98621.78;;;-4.41;58.21
67842;BME280;54642;59.126;37.876;2023-02-20T11:38:26;98560.31;;;-4.92;57.82
67842;BME280;54642;59.126;37.876;2023-02-20T11:48:37;98596.03;;;-5.57;59.29
67842;BME280;54642;59.126;37.876;2023-02-20T11:51:03;98600.38;;;-5.53;59.40
67842;BME280;54642;59.126;37.876;2023-02-20T11:53:31;98599.91;;;-5.43;59.38
67842;BME280;54642;59.126;37.876;2023-02-20T11:56:17;98587.09;;;-5.47;58.93
67842;BME280;54642;59.126;37.876;2023-02-20T11:58:45;98590.75;;;-5.39;59.21
67842;BME280;54642;59.126;37.876;2023-02-20T12:01:29;98592.28;;;-5.20;59.11
67842;BME280;54642;59.126;37.876;2023-02-20T12:03:57;98583.19;;;-4.89;59.08
67842;BME280;54642;59.126;37.876;2023-02-20T12:09:00;98586.63;;;-4.33;57.99
67842;BME280;54642;59.126;37.876;2023-02-20T12:11:28;98583.19;;;-4.35;57.97
67842;BME280;54642;59.126;37.876;2023-02-20T12:13:57;98550.00;;;-4.17;58.87
67842;BME280;54642;59.126;37.876;2023-02-20T12:19:36;98577.16;;;-3.19;57.56
67842;BME280;54642;59.126;37.876;2023-02-20T12:25:00;98580.88;;;-2.35;57.41
67842;BME280;54642;59.126;37.876;2023-02-20T12:36:18;98506.75;;;-1.80;57.09
67842;BME280;54642;59.126;37.876;2023-02-20T12:38:56;98544.59;;;-1.47;57.30
67842;BME280;54642;59.126;37.876;2023-02-20T12:44:27;98552.88;;;-1.59;56.26
67842;BME280;54642;59.126;37.876;2023-02-20T12:47:16;98567.31;;;-2.37;56.49
67842;BME280;54642;59.126;37.876;2023-02-20T12:50:11;98569.66;;;-2.82;57.36
67842;BME280;54642;59.126;37.876;2023-02-20T12:56:25;98568.19;;;-3.08;57.54
67842;BME280;54642;59.126;37.876;2023-02-20T13:01:06;98527.03;;;-3.94;58.04
67842;BME280;54642;59.126;37.876;2023-02-20T13:04:00;98492.63;;;-4.48;57.94
67842;BME280;54642;59.126;37.876;2023-02-20T13:06:57;98573.38;;;-4.24;57.93
67842;BME280;54642;59.126;37.876;2023-02-20T13:09:32;98524.63;;;-4.76;58.24
67842;BME280;54642;59.126;37.876;2023-02-20T13:12:04;98498.13;;;-4.89;58.30
67842;BME280;54642;59.126;37.876;2023-02-20T13:20:43;98561.75;;;-5.01;58.70
67842;BME280;54642;59.126;37.876;2023-02-20T13:25:43;98558.00;;;-5.12;59.00
67842;BME280;54642;59.126;37.876;2023-02-20T13:30:39;98565.28;;;-5.21;58.83
67842;BME280;54642;59.126;37.876;2023-02-20T13:33:22;98566.28;;;-5.16;58.92
67842;BME280;54642;59.126;37.876;2023-02-20T13:35:52;98560.53;;;-5.12;59.28
67842;BME280;54642;59.126;37.876;2023-02-20T13:38:20;98554.78;;;-5.08;58.99
67842;BME280;54642;59.126;37.876;2023-02-20T13:53:48;98559.97;;;-5.03;59.03
67842;BME280;54642;59.126;37.876;2023-02-20T13:58:41;98448.13;;;-5.78;58.81
67842;BME280;54642;59.126;37.876;2023-02-20T14:01:08;98556.03;;;-5.21;59.06
67842;BME280;54642;59.126;37.876;2023-02-20T14:03:35;98533.28;;;-5.22;59.19
67842;BME280;54642;59.126;37.876;2023-02-20T14:06:06;98556.31;;;-5.13;59.09
67842;BME280;54642;59.126;37.876;2023-02-20T14:08:37;98570.19;;;-5.26;58.72
67842;BME280;54642;59.126;37.876;2023-02-20T14:11:06;98476.34;;;-5.64;59.37
67842;BME280;54642;59.126;37.876;2023-02-20T14:13:33;98428.97;;;-5.98;58.96
67842;BME280;54642;59.126;37.876;2023-02-20T14:15:59;98520.50;;;-5.51;58.95
67842;BME280;54642;59.126;37.876;2023-02-20T14:18:32;98552.22;;;-5.59;58.83
67842;BME280;54642;59.126;37.876;2023-02-20T14:21:18;98533.75;;;-5.82;59.17
67842;BME280;54642;59.126;37.876;2023-02-20T14:23:46;98547.69;;;-5.92;59.43
67842;BME280;54642;59.126;37.876;2023-02-20T14:26:24;98551.75;;;-5.97;59.36
67842;BME280;54642;59.126;37.876;2023-02-20T14:28:53;98534.28;;;-6.15;59.52
67842;BME280;54642;59.126;37.876;2023-02-20T14:31:26;98561.41;;;-6.09;59.65
67842;BME280;54642;59.126;37.876;2023-02-20T14:33:57;98571.94;;;-6.20;59.55
67842;BME280;54642;59.126;37.876;2023-02-20T14:41:35;98548.91;;;-6.73;59.56
67842;BME280;54642;59.126;37.876;2023-02-20T14:44:04;98555.63;;;-6.73;59.76
67842;BME280;54642;59.126;37.876;2023-02-20T14:46:35;98542.03;;;-6.98;59.46
67842;BME280;54642;59.126;37.876;2023-02-20T14:49:06;98546.97;;;-7.01;59.79
67842;BME280;54642;59.126;37.876;2023-02-20T14:51:32;98489.47;;;-7.53;59.65
67842;BME280;54642;59.126;37.876;2023-02-20T14:56:37;98553.25;;;-7.32;60.04
67842;BME280;54642;59.126;37.876;2023-02-20T15:01:48;98510.75;;;-7.66;60.32
67842;BME280;54642;59.126;37.876;2023-02-20T15:04:17;98543.91;;;-7.55;60.05
67842;BME280;54642;59.126;37.876;2023-02-20T15:06:46;98555.31;;;-7.63;60.05
67842;BME280;54642;59.126;37.876;2023-02-20T15:09:14;98560.34;;;-7.63;59.83
67842;BME280;54642;59.126;37.876;2023-02-20T15:12:06;98554.34;;;-7.66;60.14
67842;BME280;54642;59.126;37.876;2023-02-20T15:14:36;98469.16;;;-8.18;60.39
67842;BME280;54642;59.126;37.876;2023-02-20T15:19:40;98543.72;;;-7.79;60.37
67842;BME280;54642;59.126;37.876;2023-02-20T15:22:22;98503.28;;;-8.03;60.49
67842;BME280;54642;59.126;37.876;2023-02-20T15:24:48;98521.88;;;-8.00;60.23
67842;BME280;54642;59.126;37.876;2023-02-20T15:27:17;98537.56;;;-8.06;60.37
67842;BME280;54642;59.126;37.876;2023-02-20T15:30:10;98519.41;;;-8.18;60.36
67842;BME280;54642;59.126;37.876;2023-02-20T15:32:39;98544.47;;;-8.19;60.44
67842;BME280;54642;59.126;37.876;2023-02-20T15:35:13;98470.22;;;-8.52;60.35
67842;BME280;54642;59.126;37.876;2023-02-20T15:37:41;98494.75;;;-8.46;60.46
67842;BME280;54642;59.126;37.876;2023-02-20T15:40:25;98479.94;;;-8.59;60.58
67842;BME280;54642;59.126;37.876;2023-02-20T15:42:53;98474.75;;;-8.63;60.22
67842;BME280;54642;59.126;37.876;2023-02-20T15:45:26;98517.28;;;-8.28;60.59
67842;BME280;54642;59.126;37.876;2023-02-20T15:47:52;98544.75;;;-8.13;60.70
67842;BME280;54642;59.126;37.876;2023-02-20T15:50:18;98532.72;;;-8.20;60.71
67842;BME280;54642;59.126;37.876;2023-02-20T15:52:46;98518.75;;;-8.33;60.92
67842;BME280;54642;59.126;37.876;2023-02-20T15:55:17;98490.13;;;-8.56;60.86
67842;BME280;54642;59.126;37.876;2023-02-20T15:57:45;98533.03;;;-8.32;60.87
67842;BME280;54642;59.126;37.876;2023-02-20T16:00:21;98545.06;;;-8.25;61.18
67842;BME280;54642;59.126;37.876;2023-02-20T16:02:51;98524.97;;;-8.45;60.74
67842;BME280;54642;59.126;37.876;2023-02-20T16:05:17;98499.88;;;-8.63;60.92
67842;BME280;54642;59.126;37.876;2023-02-20T16:07:43;98556.44;;;-8.33;60.67
67842;BME280;54642;59.126;37.876;2023-02-20T16:10:10;98433.63;;;-9.02;61.20
67842;BME280;54642;59.126;37.876;2023-02-20T16:12:37;98536.81;;;-8.42;61.19
67842;BME280;54642;59.126;37.876;2023-02-20T16:15:05;98531.34;;;-8.51;60.92
67842;BME280;54642;59.126;37.876;2023-02-20T16:17:33;98555.63;;;-8.52;61.37
67842;BME280;54642;59.126;37.876;2023-02-20T16:20:00;98508.22;;;-8.82;61.15
67842;BME280;54642;59.126;37.876;2023-02-20T16:22:26;98510.75;;;-8.82;61.20
67842;BME280;54642;59.126;37.876;2023-02-20T16:24:52;98550.41;;;-8.56;61.25
67842;BME280;54642;59.126;37.876;2023-02-20T16:27:24;98538.13;;;-8.68;61.40
67842;BME280;54642;59.126;37.876;2023-02-20T16:29:52;98547.50;;;-8.64;61.30
67842;BME280;54642;59.126;37.876;2023-02-20T16:32:23;98468.13;;;-9.16;61.26
67842;BME280;54642;59.126;37.876;2023-02-20T16:34:51;98552.41;;;-8.67;61.57
67842;BME280;54642;59.126;37.876;2023-02-20T16:37:17;98549.50;;;-8.57;61.38
67842;BME280;54642;59.126;37.876;2023-02-20T16:39:44;98535.84;;;-8.64;61.21
67842;BME280;54642;59.126;37.876;2023-02-20T16:42:23;98550.16;;;-8.61;61.25
67842;BME280;54642;59.126;37.876;2023-02-20T16:44:51;98514.75;;;-8.85;61.32
67842;BME280;54642;59.126;37.876;2023-02-20T16:47:23;98529.00;;;-8.66;61.37
67842;BME280;54642;59.126;37.876;2023-02-20T16:49:50;98528.06;;;-8.68;61.58
67842;BME280;54642;59.126;37.876;2023-02-20T16:52:24;98508.34;;;-8.78;61.80
67842;BME280;54642;59.126;37.876;2023-02-20T16:54:52;98515.09;;;-8.77;61.60
67842;BME280;54642;59.126;37.876;2023-02-20T16:57:20;98521.47;;;-8.66;61.67
67842;BME280;54642;59.126;37.876;2023-02-20T16:59:51;98510.84;;;-8.78;61.38
67842;BME280;54642;59.126;37.876;2023-02-20T17:02:22;98506.56;;;-8.63;62.14
67842;BME280;54642;59.126;37.876;2023-02-20T17:04:49;98509.63;;;-7.73;61.78
67842;BME280;54642;59.126;37.876;2023-02-20T17:07:15;98500.75;;;-6.80;61.26
67842;BME280;54642;59.126;37.876;2023-02-20T17:09:42;98497.66;;;-6.05;60.09
67842;BME280;54642;59.126;37.876;2023-02-20T17:12:08;98470.31;;;-5.93;59.70
67842;BME280;54642;59.126;37.876;2023-02-20T17:14:34;98481.72;;;-5.79;59.88
67842;BME280;54642;59.126;37.876;2023-02-20T17:17:01;98499.16;;;-5.85;59.13
67842;BME280;54642;59.126;37.876;2023-02-20T17:19:28;98420.47;;;-6.26;59.83
67842;BME280;54642;59.126;37.876;2023-02-20T17:21:54;98484.28;;;-5.27;60.38
67842;BME280;54642;59.126;37.876;2023-02-20T17:24:19;98430.75;;;-5.43;59.21
67842;BME280;54642;59.126;37.876;2023-02-20T17:26:45;98483.34;;;-5.31;59.65
67842;BME280;54642;59.126;37.876;2023-02-20T17:29:12;98478.78;;;-5.41;59.44
67842;BME280;54642;59.126;37.876;2023-02-20T17:31:38;98489.69;;;-6.16;59.65
67842;BME280;54642;59.126;37.876;2023-02-20T17:34:06;98427.31;;;-6.91;60.90
67842;BME280;54642;59.126;37.876;2023-02-20T17:36:32;98492.59;;;-6.29;60.40
67842;BME280;54642;59.126;37.876;2023-02-20T17:38:58;98440.63;;;-7.16;60.85
67842;BME280;54642;59.126;37.876;2023-02-20T17:41:24;98486.69;;;-7.40;61.17
67842;BME280;54642;59.126;37.876;2023-02-20T17:43:50;98486.75;;;-7.79;61.72
67842;BME280;54642;59.126;37.876;2023-02-20T17:46:17;98496.94;;;-8.15;61.84
67842;BME280;54642;59.126;37.876;2023-02-20T17:48:43;98495.75;;;-8.43;62.10
67842;BME280;54642;59.126;37.876;2023-02-20T17:51:09;98480.59;;;-8.64;62.52
67842;BME280;54642;59.126;37.876;2023-02-20T17:53:35;98499.38;;;-8.73;62.77
67842;BME280;54642;59.126;37.876;2023-02-20T17:56:01;98487.34;;;-8.80;62.54
67842;BME280;54642;59.126;37.876;2023-02-20T17:58:27;98466.34;;;-9.01;62.78
67842;BME280;54642;59.126;37.876;2023-02-20T18:00:52;98458.97;;;-9.15;62.80
67842;BME280;54642;59.126;37.876;2023-02-20T18:03:18;98499.91;;;-8.98;62.62
67842;BME280;54642;59.126;37.876;2023-02-20T18:05:44;98497.66;;;-9.10;62.54
67842;BME280;54642;59.126;37.876;2023-02-20T18:08:10;98484.56;;;-9.23;62.85
67842;BME280;54642;59.126;37.876;2023-02-20T18:10:36;98493.22;;;-9.16;63.05
67842;BME280;54642;59.126;37.876;2023-02-20T18:13:03;98477.13;;;-9.37;62.52
67842;BME280;54642;59.126;37.876;2023-02-20T18:15:33;98481.03;;;-9.44;62.94
67842;BME280;54642;59.126;37.876;2023-02-20T18:18:00;98488.19;;;-9.34;63.12
67842;BME280;54642;59.126;37.876;2023-02-20T18:20:27;98500.16;;;-9.28;63.05
67842;BME280;54642;59.126;37.876;2023-02-20T18:22:57;98367.88;;;-10.03;62.88
67842;BME280;54642;59.126;37.876;2023-02-20T18:25:24;98493.59;;;-9.26;62.81
67842;BME280;54642;59.126;37.876;2023-02-20T18:27:54;98439.13;;;-9.63;63.01
67842;BME280;54642;59.126;37.876;2023-02-20T18:30:20;98490.28;;;-9.25;62.98
67842;BME280;54642;59.126;37.876;2023-02-20T18:32:47;98491.63;;;-9.32;63.22
67842;BME280;54642;59.126;37.876;2023-02-20T18:35:15;98491.63;;;-9.32;63.06
67842;BME280;54642;59.126;37.876;2023-02-20T18:37:41;98429.22;;;-9.78;62.79
67842;BME280;54642;59.126;37.876;2023-02-20T18:40:07;98496.59;;;-9.33;63.13
67842;BME280;54642;59.126;37.876;2023-02-20T18:42:34;98410.16;;;-9.92;62.86
67842;BME280;54642;59.126;37.876;2023-02-20T18:45:00;98488.31;;;-9.49;62.98
67842;BME280;54642;59.126;37.876;2023-02-20T18:47:25;98492.75;;;-9.43;63.18
67842;BME280;54642;59.126;37.876;2023-02-20T18:49:51;98495.84;;;-9.49;62.77
67842;BME280;54642;59.126;37.876;2023-02-20T18:52:18;98426.56;;;-9.81;62.84
67842;BME280;54642;59.126;37.876;2023-02-20T18:54:49;98497.19;;;-9.37;63.17
67842;BME280;54642;59.126;37.876;2023-02-20T18:57:15;98496.19;;;-9.41;62.89
67842;BME280;54642;59.126;37.876;2023-02-20T18:59:41;98477.78;;;-9.76;62.75
67842;BME280;54642;59.126;37.876;2023-02-20T19:02:13;98490.50;;;-9.55;63.06
67842;BME280;54642;59.126;37.876;2023-02-20T19:04:39;98487.41;;;-9.67;62.79
67842;BME280;54642;59.126;37.876;2023-02-20T19:07:06;98471.16;;;-9.92;62.81
67842;BME280;54642;59.126;37.876;2023-02-20T19:09:32;98467.78;;;-9.92;62.71
67842;BME280;54642;59.126;37.876;2023-02-20T19:12:04;98402.34;;;-10.33;63.10
67842;BME280;54642;59.126;37.876;2023-02-20T19:14:34;98407.00;;;-10.39;63.14
67842;BME280;54642;59.126;37.876;2023-02-20T19:17:01;98466.22;;;-10.07;63.05
67842;BME280;54642;59.126;37.876;2023-02-20T19:19:29;98469.53;;;-10.08;63.11
67842;BME280;54642;59.126;37.876;2023-02-20T19:21:56;98404.97;;;-10.46;63.36
67842;BME280;54642;59.126;37.876;2023-02-20T19:24:23;98435.06;;;-10.28;63.49
67842;BME280;54642;59.126;37.876;2023-02-20T19:26:49;98410.91;;;-10.28;63.12
67842;BME280;54642;59.126;37.876;2023-02-20T19:29:16;98455.09;;;-9.95;63.18
67842;BME280;54642;59.126;37.876;2023-02-20T19:31:43;98456.91;;;-10.09;63.49
67842;BME280;54642;59.126;37.876;2023-02-20T19:34:10;98457.59;;;-9.95;63.63
67842;BME280;54642;59.126;37.876;2023-02-20T19:36:40;98445.78;;;-9.98;63.65
67842;BME280;54642;59.126;37.876;2023-02-20T19:39:07;98418.56;;;-10.08;63.38
67842;BME280;54642;59.126;37.876;2023-02-20T19:41:34;98455.47;;;-9.88;63.48
67842;BME280;54642;59.126;37.876;2023-02-20T19:44:02;98422.00;;;-10.06;63.46
67842;BME280;54642;59.126;37.876;2023-02-20T19:46:29;98440.63;;;-10.01;63.61
67842;BME280;54642;59.126;37.876;2023-02-20T19:48:54;98449.63;;;-9.88;63.48
67842;BME280;54642;59.126;37.876;2023-02-20T19:51:20;98336.75;;;-10.59;63.65
67842;BME280;54642;59.126;37.876;2023-02-20T19:53:47;98358.03;;;-10.34;63.46
67842;BME280;54642;59.126;37.876;2023-02-20T19:56:14;98448.97;;;-9.84;63.57
67842;BME280;54642;59.126;37.876;2023-02-20T19:58:40;98446.94;;;-9.91;63.45
67842;BME280;54642;59.126;37.876;2023-02-20T20:01:10;98420.66;;;-10.16;63.64
67842;BME280;54642;59.126;37.876;2023-02-20T20:03:37;98372.38;;;-10.48;63.68
67842;BME280;54642;59.126;37.876;2023-02-20T20:06:06;98417.88;;;-10.22;63.72
67842;BME280;54642;59.126;37.876;2023-02-20T20:08:33;98425.22;;;-10.25;63.76
67842;BME280;54642;59.126;37.876;2023-02-20T20:10:59;98395.16;;;-10.25;63.58
67842;BME280;54642;59.126;37.876;2023-02-20T20:13:25;98414.63;;;-10.20;63.47
67842;BME280;54642;59.126;37.876;2023-02-20T20:15:51;98380.03;;;-10.61;63.33
67842;BME280;54642;59.126;37.876;2023-02-20T20:18:17;98346.22;;;-10.86;63.62
67842;BME280;54642;59.126;37.876;2023-02-20T20:20:43;98410.06;;;-10.45;63.86
67842;BME280;54642;59.126;37.876;2023-02-20T20:23:08;98403.34;;;-10.46;63.87
67842;BME280;54642;59.126;37.876;2023-02-20T20:25:34;98422.03;;;-10.39;64.04
67842;BME280;54642;59.126;37.876;2023-02-20T20:28:00;98397.16;;;-10.52;63.66
67842;BME280;54642;59.126;37.876;2023-02-20T20:30:30;98397.84;;;-10.55;63.74
67842;BME280;54642;59.126;37.876;2023-02-20T20:32:56;98370.31;;;-10.71;64.11
67842;BME280;54642;59.126;37.876;2023-02-20T20:35:25;98411.63;;;-10.47;64.00
67842;BME280;54642;59.126;37.876;2023-02-20T20:37:52;98410.53;;;-10.52;64.10
67842;BME280;54642;59.126;37.876;2023-02-20T20:40:18;98407.34;;;-10.49;63.78
67842;BME280;54642;59.126;37.876;2023-02-20T20:42:44;98399.44;;;-10.57;63.92
67842;BME280;54642;59.126;37.876;2023-02-20T20:45:12;98404.22;;;-10.62;63.74
67842;BME280;54642;59.126;37.876;2023-02-20T20:47:39;98403.78;;;-10.69;64.19
67842;BME280;54642;59.126;37.876;2023-02-20T20:50:08;98407.72;;;-10.75;64.32
67842;BME280;54642;59.126;37.876;2023-02-20T20:52:34;98397.84;;;-10.71;64.11
67842;BME280;54642;59.126;37.876;2023-02-20T20:55:00;98401.00;;;-10.76;64.38
67842;BME280;54642;59.126;37.876;2023-02-20T20:57:28;98386.81;;;-10.75;64.25
67842;BME280;54642;59.126;37.876;2023-02-20T20:59:55;98375.78;;;-10.79;64.31
67842;BME280;54642;59.126;37.876;2023-02-20T21:02:24;98283.91;;;-11.31;64.01
67842;BME280;54642;59.126;37.876;2023-02-20T21:04:51;98371.50;;;-10.81;64.30
67842;BME280;54642;59.126;37.876;2023-02-20T21:07:18;98328.63;;;-11.04;64.25
67842;BME280;54642;59.126;37.876;2023-02-20T21:09:44;98376.97;;;-10.72;64.38
67842;BME280;54642;59.126;37.876;2023-02-20T21:12:11;98347.09;;;-11.02;64.18
67842;BME280;54642;59.126;37.876;2023-02-20T21:14:38;98360.31;;;-10.88;64.16
67842;BME280;54642;59.126;37.876;2023-02-20T21:17:10;98353.34;;;-10.94;63.97
67842;BME280;54642;59.126;37.876;2023-02-20T21:19:36;98395.97;;;-10.76;64.24
67842;BME280;54642;59.126;37.876;2023-02-20T21:22:02;98390.03;;;-10.78;64.46
67842;BME280;54642;59.126;37.876;2023-02-20T21:24:28;98340.91;;;-11.08;64.14
67842;BME280;54642;59.126;37.876;2023-02-20T21:26:54;98440.84;;;-10.79;64.39
67842;BME280;54642;59.126;37.876;2023-02-20T21:29:20;98345.13;;;-11.07;63.99
67842;BME280;54642;59.126;37.876;2023-02-20T21:31:46;98383.00;;;-10.85;64.41
67842;BME280;54642;59.126;37.876;2023-02-20T21:34:12;98360.59;;;-10.98;64.32
67842;BME280;54642;59.126;37.876;2023-02-20T21:36:40;98377.09;;;-11.02;64.39
67842;BME280;54642;59.126;37.876;2023-02-20T21:39:06;98381.16;;;-11.04;64.21
67842;BME280;54642;59.126;37.876;2023-02-20T21:41:32;98319.06;;;-11.44;64.36
67842;BME280;54642;59.126;37.876;2023-02-20T21:44:21;98378.91;;;-11.16;64.45
67842;BME280;54642;59.126;37.876;2023-02-20T21:46:56;98380.44;;;-11.18;64.36